Time;durP1;ratioP1;P1;durP2;ratioP2;P2;SDS_P1;SDS_P2;PMS_P1;PMS_P2;Temp;Humidity;BMP_temperature;BMP_pressure;BME280_temperature;BME280_humidity;BME280_pressure;Samples;Min_cycle;Max_cycle;Signal;HPM_P1;HPM_P2
2022/05/08 00:00:31;;;;;;;7.97;6.72;;;16.80;95.60;;;;;;5010766;28;20025;-63
2022/05/08 00:02:57;;;;;;;8.60;5.97;;;16.90;95.70;;;;;;5012618;28;20048;-63
2022/05/08 00:05:24;;;;;;;7.68;6.28;;;16.80;95.80;;;;;;5011664;28;20387;-66
2022/05/08 00:07:50;;;;;;;8.80;6.38;;;16.80;96.00;;;;;;5013071;28;20032;-64
2022/05/08 00:10:15;;;;;;;7.55;6.82;;;16.90;96.00;;;;;;5013032;28;20022;-66
2022/05/08 00:12:41;;;;;;;7.15;6.45;;;16.80;96.30;;;;;;5013622;28;20034;-65
2022/05/08 00:15:07;;;;;;;6.50;5.60;;;16.70;96.50;;;;;;5014132;28;20041;-65
2022/05/08 00:17:34;;;;;;;7.47;6.38;;;16.70;96.70;;;;;;5011654;28;20030;-64
2022/05/08 00:20:02;;;;;;;10.25;6.43;;;16.70;97.20;;;;;;5012393;28;20077;-66
2022/05/08 00:22:28;;;;;;;8.52;6.57;;;16.60;97.20;;;;;;5011977;28;20026;-64
2022/05/08 00:24:53;;;;;;;8.60;7.50;;;16.70;97.20;;;;;;5011203;28;20379;-64
2022/05/08 00:27:19;;;;;;;9.38;6.20;;;16.70;97.30;;;;;;5011699;28;20447;-64
2022/05/08 00:29:45;;;;;;;11.82;7.43;;;16.70;97.50;;;;;;5013100;28;20076;-65
2022/05/08 00:32:11;;;;;;;8.95;6.88;;;16.60;97.70;;;;;;5012087;28;20030;-66
2022/05/08 00:34:36;;;;;;;10.13;7.03;;;16.50;98.10;;;;;;5011099;28;20038;-64
2022/05/08 00:37:03;;;;;;;11.50;6.85;;;16.50;98.50;;;;;;5012846;28;20432;-64
2022/05/08 00:39:28;;;;;;;9.38;7.20;;;16.40;98.60;;;;;;5012479;28;20033;-63
2022/05/08 00:41:54;;;;;;;11.25;7.15;;;16.50;98.70;;;;;;5012054;28;20046;-64
2022/05/08 00:44:20;;;;;;;12.45;8.70;;;16.40;99.10;;;;;;5012281;28;20459;-66
2022/05/08 00:46:48;;;;;;;8.10;7.15;;;16.40;99.30;;;;;;5012417;28;20030;-63
2022/05/08 00:49:14;;;;;;;8.93;6.57;;;16.50;99.20;;;;;;5013338;28;20351;-64
2022/05/08 00:51:40;;;;;;;8.88;7.63;;;16.50;99.30;;;;;;5011437;28;20037;-64
2022/05/08 00:54:06;;;;;;;8.45;6.50;;;16.40;99.50;;;;;;5010965;28;20026;-65
2022/05/08 00:56:32;;;;;;;11.75;7.85;;;16.40;99.80;;;;;;5011588;28;20101;-64
2022/05/08 00:58:58;;;;;;;10.43;8.18;;;16.30;99.90;;;;;;5011640;28;20030;-63
2022/05/08 01:01:23;;;;;;;8.15;6.75;;;16.40;99.80;;;;;;5010645;28;20374;-65
2022/05/08 01:03:49;;;;;;;9.07;7.03;;;16.40;99.90;;;;;;5011433;28;20088;-64
2022/05/08 01:06:17;;;;;;;9.35;7.50;;;16.40;99.90;;;;;;5010597;28;20022;-65
2022/05/08 01:08:45;;;;;;;8.80;7.35;;;16.50;99.90;;;;;;5010662;28;20044;-64
2022/05/08 01:11:11;;;;;;;10.13;6.80;;;16.30;99.90;;;;;;5011492;28;20034;-64
2022/05/08 01:13:38;;;;;;;13.60;7.88;;;16.40;99.90;;;;;;5011264;28;20034;-65
2022/05/08 01:16:12;;;;;;;10.18;7.47;;;16.30;99.90;;;;;;5011613;28;20030;-64
2022/05/08 01:18:38;;;;;;;10.43;6.82;;;16.30;99.90;;;;;;5010610;28;20105;-64
2022/05/08 01:21:12;;;;;;;8.50;7.10;;;16.30;99.90;;;;;;5011659;28;20057;-64
2022/05/08 01:23:38;;;;;;;10.02;7.43;;;16.10;99.90;;;;;;5009437;28;20030;-64
2022/05/08 01:26:04;;;;;;;8.90;7.30;;;16.10;99.90;;;;;;5011686;28;20034;-65
2022/05/08 01:28:30;;;;;;;9.18;7.50;;;16.10;99.90;;;;;;5010508;28;20026;-65
2022/05/08 01:30:56;;;;;;;9.13;6.82;;;16.00;99.90;;;;;;5010210;28;20455;-64
2022/05/08 01:33:23;;;;;;;10.52;8.45;;;16.00;99.90;;;;;;5009954;28;20042;-64
2022/05/08 01:35:52;;;;;;;10.02;7.70;;;16.00;99.90;;;;;;5010673;28;20037;-64
2022/05/08 01:38:20;;;;;;;10.40;6.85;;;16.00;99.90;;;;;;5011376;28;20057;-64
2022/05/08 01:40:47;;;;;;;10.98;7.90;;;16.10;99.90;;;;;;5010243;28;20108;-64
2022/05/08 01:43:13;;;;;;;10.68;7.53;;;16.00;99.90;;;;;;5009532;28;20026;-65
2022/05/08 01:45:40;;;;;;;9.05;7.13;;;16.00;99.90;;;;;;5009282;28;20146;-64
2022/05/08 01:48:22;;;;;;;8.95;6.85;;;16.10;99.90;;;;;;5011239;28;20036;-63
2022/05/08 01:50:51;;;;;;;9.48;7.10;;;16.00;99.90;;;;;;5010815;28;20034;-64
2022/05/08 01:53:25;;;;;;;11.10;7.40;;;16.00;99.90;;;;;;4993150;28;20038;-64
2022/05/08 01:55:54;;;;;;;11.57;6.78;;;15.90;99.90;;;;;;5009337;28;20034;-64
2022/05/08 01:58:20;;;;;;;10.93;7.30;;;15.90;99.90;;;;;;5009958;28;20030;-64
2022/05/08 02:00:47;;;;;;;10.32;6.95;;;15.80;99.90;;;;;;4996405;28;20026;-63
2022/05/08 02:03:13;;;;;;;8.35;6.72;;;15.80;99.90;;;;;;5015283;28;20030;-63
2022/05/08 02:05:41;;;;;;;8.57;6.53;;;15.80;99.90;;;;;;5014500;28;20108;-63
2022/05/08 02:08:07;;;;;;;9.95;7.43;;;15.80;99.90;;;;;;5013522;28;20026;-63
2022/05/08 02:10:34;;;;;;;10.10;6.97;;;15.80;99.90;;;;;;5012970;28;20092;-64
2022/05/08 02:12:59;;;;;;;8.70;6.43;;;15.70;99.90;;;;;;5014642;28;20383;-64
2022/05/08 02:15:31;;;;;;;9.27;7.47;;;15.80;99.90;;;;;;5013489;28;20026;-62
2022/05/08 02:18:02;;;;;;;7.95;6.30;;;15.60;99.90;;;;;;5014672;28;20049;-64
2022/05/08 02:20:28;;;;;;;8.40;7.10;;;15.50;99.90;;;;;;5014734;28;20052;-64
2022/05/08 02:22:54;;;;;;;7.72;6.70;;;15.60;99.90;;;;;;5014116;28;20038;-63
2022/05/08 02:25:20;;;;;;;9.55;7.25;;;15.50;99.90;;;;;;5013406;28;20061;-64
2022/05/08 02:27:49;;;;;;;10.30;7.07;;;15.60;99.90;;;;;;5012386;28;20475;-63
2022/05/08 02:30:16;;;;;;;15.07;7.43;;;15.60;99.90;;;;;;5014931;28;20034;-63
2022/05/08 02:32:43;;;;;;;8.02;7.10;;;15.50;99.90;;;;;;5012505;28;20439;-64
2022/05/08 02:35:12;;;;;;;9.98;6.88;;;15.70;99.90;;;;;;5013400;28;20030;-64
2022/05/08 02:37:41;;;;;;;9.23;7.65;;;15.60;99.90;;;;;;5014088;28;20105;-64
2022/05/08 02:40:08;;;;;;;8.15;7.30;;;15.50;99.90;;;;;;5013306;28;20220;-64
2022/05/08 02:42:35;;;;;;;8.70;7.00;;;15.50;99.90;;;;;;5012544;28;20037;-65
2022/05/08 02:45:02;;;;;;;15.30;8.07;;;15.40;99.90;;;;;;5014488;28;20030;-64
2022/05/08 02:47:27;;;;;;;9.93;7.38;;;15.40;99.90;;;;;;5013234;28;20405;-64
2022/05/08 02:49:53;;;;;;;9.02;6.97;;;15.30;99.90;;;;;;5013719;28;20042;-63
2022/05/08 02:52:19;;;;;;;6.88;6.18;;;15.30;99.90;;;;;;5012908;28;20089;-63
2022/05/08 02:54:44;;;;;;;13.32;7.82;;;15.30;99.90;;;;;;5012163;28;20076;-64
2022/05/08 02:59:54;;;;;;;10.60;7.22;;;15.30;99.90;;;;;;5012709;28;20340;-63
2022/05/08 03:02:20;;;;;;;10.82;7.03;;;15.30;99.90;;;;;;5014282;28;20034;-63
2022/05/08 03:04:46;;;;;;;8.68;6.20;;;15.30;99.90;;;;;;5013176;28;20022;-63
2022/05/08 03:07:13;;;;;;;13.77;6.43;;;15.30;99.90;;;;;;5014281;28;20169;-66
2022/05/08 03:09:38;;;;;;;11.73;7.25;;;15.30;99.90;;;;;;5012072;28;20455;-63
2022/05/08 03:12:04;;;;;;;8.45;6.05;;;15.30;99.90;;;;;;5011471;28;20037;-63
2022/05/08 03:14:30;;;;;;;6.57;5.93;;;15.20;99.90;;;;;;5013936;28;20037;-64
2022/05/08 03:16:56;;;;;;;7.13;5.80;;;15.40;99.90;;;;;;5013019;28;20113;-64
2022/05/08 03:19:22;;;;;;;11.57;6.28;;;15.30;99.90;;;;;;5013291;28;20084;-63
2022/05/08 03:21:51;;;;;;;10.07;5.78;;;15.20;99.90;;;;;;5013269;28;20386;-65
2022/05/08 03:24:17;;;;;;;8.75;7.05;;;15.30;99.90;;;;;;5013855;28;20114;-64
2022/05/08 03:26:43;;;;;;;8.77;6.68;;;15.20;99.90;;;;;;5013186;28;20088;-65
2022/05/08 03:29:09;;;;;;;6.63;5.93;;;15.10;99.90;;;;;;5013404;28;20029;-63
2022/05/08 03:31:35;;;;;;;9.93;6.55;;;15.10;99.90;;;;;;5011993;28;20507;-74
2022/05/08 03:34:00;;;;;;;11.50;6.97;;;15.10;99.90;;;;;;5013224;28;20041;-64
2022/05/08 03:36:26;;;;;;;13.52;6.97;;;15.00;99.90;;;;;;5013485;28;20022;-64
2022/05/08 03:38:52;;;;;;;8.55;6.13;;;15.10;99.90;;;;;;5012816;28;20030;-65
2022/05/08 03:41:19;;;;;;;7.45;6.45;;;15.00;99.90;;;;;;5013441;28;20343;-67
2022/05/08 03:43:46;;;;;;;8.55;6.78;;;14.90;99.90;;;;;;5011344;28;20034;-65
2022/05/08 03:46:13;;;;;;;8.02;7.03;;;15.00;99.90;;;;;;5012101;28;20451;-64
2022/05/08 03:48:39;;;;;;;7.43;6.63;;;15.00;99.90;;;;;;5012588;28;20057;-65
2022/05/08 03:51:04;;;;;;;8.65;6.93;;;14.90;99.90;;;;;;5011985;28;20030;-64
2022/05/08 03:53:30;;;;;;;12.73;7.75;;;14.90;99.90;;;;;;5013271;28;20040;-67
2022/05/08 03:55:56;;;;;;;10.63;7.03;;;14.80;99.90;;;;;;5012682;28;20633;-64
2022/05/08 03:58:22;;;;;;;9.13;7.47;;;14.80;99.90;;;;;;5013145;28;20022;-64
2022/05/08 04:00:48;;;;;;;10.85;7.95;;;14.70;99.90;;;;;;5012178;28;20025;-64
2022/05/08 04:03:13;;;;;;;10.43;7.38;;;14.70;99.90;;;;;;5012822;28;20030;-65
2022/05/08 04:05:39;;;;;;;9.27;7.93;;;14.70;99.90;;;;;;5012074;28;20080;-64
2022/05/08 04:08:05;;;;;;;10.32;8.30;;;14.80;99.90;;;;;;5011707;28;20032;-64
2022/05/08 04:10:33;;;;;;;12.57;7.75;;;14.70;99.90;;;;;;5012632;28;20036;-64
2022/05/08 04:12:58;;;;;;;8.52;7.60;;;14.70;99.90;;;;;;5012251;28;20041;-64
2022/05/08 04:18:09;;;;;;;14.38;8.32;;;14.70;99.90;;;;;;5012808;28;20037;-65
2022/05/08 04:20:35;;;;;;;9.45;7.88;;;14.80;99.90;;;;;;5006724;28;20049;-65
2022/05/08 04:25:45;;;;;;;10.55;7.57;;;14.70;99.90;;;;;;5012148;28;20061;-65
2022/05/08 04:28:11;;;;;;;10.85;8.05;;;14.80;99.90;;;;;;5011129;28;20046;-65
2022/05/08 04:30:37;;;;;;;10.57;7.90;;;14.80;99.90;;;;;;5012563;28;20079;-65
2022/05/08 04:33:03;;;;;;;9.23;7.43;;;14.80;99.90;;;;;;5010107;28;20091;-65
2022/05/08 04:35:29;;;;;;;13.80;7.97;;;14.80;99.90;;;;;;5011050;28;20030;-64
2022/05/08 04:37:54;;;;;;;3.03;2.38;;;14.70;99.90;;;;;;5010910;28;20521;-67
2022/05/08 04:40:20;;;;;;;6.60;5.38;;;15.60;99.90;;;;;;5012118;28;20029;-68
2022/05/08 04:42:46;;;;;;;5.28;4.00;;;16.90;99.90;;;;;;5009821;28;20154;-67
2022/05/08 04:45:11;;;;;;;8.35;6.25;;;17.70;99.90;;;;;;5012353;28;20108;-62
2022/05/08 04:47:37;;;;;;;11.18;6.65;;;17.00;99.90;;;;;;5012210;28;20394;-63
2022/05/08 04:50:03;;;;;;;9.45;7.78;;;16.60;99.90;;;;;;5010071;28;20478;-62
2022/05/08 04:52:28;;;;;;;10.90;7.63;;;16.20;99.90;;;;;;5010709;28;20451;-65
2022/05/08 04:54:54;;;;;;;9.70;7.65;;;15.80;99.90;;;;;;5011365;28;20409;-59
2022/05/08 04:57:19;;;;;;;11.18;7.40;;;15.60;99.90;;;;;;5011800;28;20029;-64
2022/05/08 04:59:45;;;;;;;10.55;8.32;;;16.00;99.90;;;;;;5001150;28;20072;-65
2022/05/08 05:02:12;;;;;;;9.68;8.30;;;15.90;99.90;;;;;;5011710;28;20439;-65
2022/05/08 05:04:38;;;;;;;9.77;8.00;;;15.60;99.90;;;;;;5011909;28;20125;-65
2022/05/08 05:07:03;;;;;;;11.60;8.70;;;15.50;99.90;;;;;;5009996;28;20452;-65
2022/05/08 05:09:29;;;;;;;11.15;7.95;;;15.40;99.90;;;;;;5011822;28;20440;-65
2022/05/08 05:11:55;;;;;;;9.75;7.93;;;15.50;99.90;;;;;;5007878;28;20391;-65
2022/05/08 05:14:20;;;;;;;12.70;8.85;;;15.50;99.90;;;;;;5010839;28;20509;-66
2022/05/08 05:16:46;;;;;;;10.55;8.18;;;15.20;99.90;;;;;;5009518;28;20062;-66
2022/05/08 05:19:12;;;;;;;11.52;8.73;;;15.10;99.90;;;;;;5010046;28;20075;-65
2022/05/08 05:21:38;;;;;;;12.52;9.10;;;15.10;99.90;;;;;;5011078;28;20030;-65
2022/05/08 05:24:05;;;;;;;11.18;9.23;;;15.20;99.90;;;;;;5009689;28;20537;-65
2022/05/08 05:26:30;;;;;;;13.65;8.77;;;15.20;99.90;;;;;;4994303;28;20022;-65
2022/05/08 05:28:56;;;;;;;12.93;9.95;;;15.30;99.90;;;;;;5009612;28;20392;-65
2022/05/08 05:31:22;;;;;;;10.30;8.95;;;15.30;99.90;;;;;;5010243;28;20033;-66
2022/05/08 05:33:47;;;;;;;16.67;9.32;;;15.30;99.90;;;;;;5010436;28;20471;-66
2022/05/08 05:36:14;;;;;;;14.32;10.13;;;15.30;99.90;;;;;;5014383;28;20355;-64
2022/05/08 05:38:40;;;;;;;14.65;10.23;;;15.30;99.90;;;;;;5013841;28;20060;-65
2022/05/08 05:41:06;;;;;;;15.18;10.35;;;15.30;99.90;;;;;;5013751;28;20032;-66
2022/05/08 05:43:32;;;;;;;14.45;9.95;;;15.40;99.90;;;;;;5000897;28;20117;-64
2022/05/08 05:48:43;;;;;;;15.07;10.90;;;15.40;99.90;;;;;;5010623;28;20092;-63
2022/05/08 05:51:08;;;;;;;13.38;9.80;;;15.50;99.90;;;;;;5009268;28;20068;-64
2022/05/08 05:53:35;;;;;;;13.27;9.98;;;15.60;99.90;;;;;;5014136;28;20070;-65
2022/05/08 05:56:01;;;;;;;12.27;9.48;;;15.60;99.90;;;;;;5015033;28;20058;-65
2022/05/08 05:58:27;;;;;;;15.73;9.93;;;15.60;99.90;;;;;;5014933;28;20064;-65
2022/05/08 06:00:52;;;;;;;14.25;10.50;;;15.70;99.90;;;;;;5012753;28;20058;-65
2022/05/08 06:03:18;;;;;;;12.60;9.88;;;15.70;99.90;;;;;;5013527;28;20026;-65
2022/05/08 06:05:44;;;;;;;15.30;10.93;;;15.70;99.90;;;;;;5012819;28;20026;-73
2022/05/08 06:08:10;;;;;;;15.25;10.43;;;15.70;99.90;;;;;;5011152;28;20022;-64
2022/05/08 06:10:38;;;;;;;15.88;12.50;;;15.80;99.90;;;;;;5007263;28;20478;-64
2022/05/08 06:13:04;;;;;;;14.13;10.30;;;15.80;99.90;;;;;;5005072;28;20038;-64
2022/05/08 06:15:29;;;;;;;16.48;10.00;;;15.80;99.90;;;;;;5014394;28;20394;-65
2022/05/08 06:17:55;;;;;;;14.27;10.00;;;15.90;99.90;;;;;;5012622;28;20221;-65
2022/05/08 06:20:21;;;;;;;14.70;11.80;;;15.80;99.90;;;;;;5011817;28;20046;-65
2022/05/08 06:22:47;;;;;;;14.90;11.23;;;15.80;99.90;;;;;;5004097;28;20034;-66
2022/05/08 06:25:12;;;;;;;12.23;10.70;;;15.80;99.90;;;;;;5014942;28;20379;-64
2022/05/08 06:27:38;;;;;;;12.95;11.00;;;15.90;99.90;;;;;;5014652;28;20037;-65
2022/05/08 06:30:08;;;;;;;17.83;11.15;;;16.00;99.90;;;;;;5013677;28;20025;-66
2022/05/08 06:32:35;;;;;;;15.95;11.02;;;16.10;99.90;;;;;;5014257;28;20080;-64
2022/05/08 06:35:01;;;;;;;13.00;10.30;;;16.20;99.90;;;;;;5011819;28;20033;-65
2022/05/08 06:37:27;;;;;;;14.02;11.30;;;16.30;99.90;;;;;;5008048;28;20030;-64
2022/05/08 06:39:52;;;;;;;13.73;10.27;;;16.40;99.90;;;;;;4994297;28;20030;-64
2022/05/08 06:42:18;;;;;;;13.68;10.27;;;16.50;99.90;;;;;;4993377;28;20415;-65
2022/05/08 06:44:44;;;;;;;12.52;10.50;;;16.60;99.90;;;;;;4994420;28;20029;-65
2022/05/08 06:47:10;;;;;;;12.23;9.75;;;16.60;99.90;;;;;;4992752;28;20114;-65
2022/05/08 06:49:36;;;;;;;12.40;10.82;;;16.80;99.90;;;;;;4992785;28;20041;-65
2022/05/08 06:52:01;;;;;;;12.55;10.15;;;16.90;99.90;;;;;;4993453;28;20054;-64
2022/05/08 06:54:27;;;;;;;13.90;10.85;;;17.00;99.90;;;;;;4997369;28;20034;-66
2022/05/08 06:56:55;;;;;;;11.88;9.63;;;17.20;99.90;;;;;;5007355;28;20030;-66
2022/05/08 07:02:05;;;;;;;12.70;10.40;;;17.40;99.90;;;;;;5012111;28;20140;-65
2022/05/08 07:04:30;;;;;;;11.32;10.00;;;17.50;99.90;;;;;;5013087;28;20026;-66
2022/05/08 07:06:56;;;;;;;11.55;9.85;;;17.70;99.90;;;;;;5012080;28;20025;-64
2022/05/08 07:09:22;;;;;;;13.73;10.23;;;17.70;99.90;;;;;;5013711;28;20402;-65
2022/05/08 07:11:48;;;;;;;14.27;10.48;;;17.90;99.90;;;;;;5013757;28;20135;-71
2022/05/08 07:14:15;;;;;;;11.88;10.68;;;17.90;99.90;;;;;;5014044;28;20076;-64
2022/05/08 07:16:41;;;;;;;15.55;10.27;;;17.90;99.90;;;;;;5012448;28;20026;-66
2022/05/08 07:19:07;;;;;;;16.27;9.85;;;18.00;99.90;;;;;;5011026;28;20054;-65
2022/05/08 07:21:32;;;;;;;14.93;10.57;;;17.90;99.90;;;;;;5027029;28;20046;-67
2022/05/08 07:23:58;;;;;;;23.27;12.13;;;18.10;99.90;;;;;;5020559;28;20414;-65
2022/05/08 07:26:24;;;;;;;13.63;10.25;;;18.30;99.90;;;;;;5011566;28;20049;-65
2022/05/08 07:28:49;;;;;;;12.55;9.68;;;18.40;99.90;;;;;;5019750;28;20045;-60
2022/05/08 07:31:16;;;;;;;10.50;6.38;;;18.60;99.90;;;;;;5030472;28;20033;-64
2022/05/08 07:33:41;;;;;;;10.77;7.88;;;19.20;99.90;;;;;;5030324;28;20045;-62
2022/05/08 07:36:13;;;;;;;8.23;6.88;;;19.70;99.90;;;;;;5013240;28;20128;-62
2022/05/08 07:38:45;;;;;;;8.88;7.90;;;20.10;99.90;;;;;;5025859;28;20025;-62
2022/05/08 07:41:12;;;;;;;10.15;9.15;;;20.40;99.90;;;;;;5029022;28;20155;-62
2022/05/08 07:43:38;;;;;;;13.10;8.73;;;20.60;99.30;;;;;;5030558;28;20065;-62
2022/05/08 07:46:05;;;;;;;9.95;8.00;;;20.40;99.60;;;;;;5029664;28;20160;-62
2022/05/08 07:48:31;;;;;;;7.53;6.50;;;20.70;99.70;;;;;;5013444;28;20100;-63
2022/05/08 07:50:59;;;;;;;8.60;5.30;;;20.90;99.90;;;;;;5029655;28;20041;-63
2022/05/08 07:53:29;;;;;;;9.15;6.43;;;21.30;99.60;;;;;;5013363;28;20037;-63
2022/05/08 07:55:55;;;;;;;11.55;7.47;;;21.10;98.70;;;;;;5029081;28;20029;-63
2022/05/08 07:58:22;;;;;;;8.90;8.02;;;21.30;98.60;;;;;;5024214;28;20467;-63
2022/05/08 08:00:54;;;;;;;9.75;6.68;;;21.40;98.00;;;;;;5010229;28;20034;-63
2022/05/08 08:03:24;;;;;;;12.00;6.30;;;21.60;99.50;;;;;;5012442;28;20046;-63
2022/05/08 08:05:51;;;;;;;19.43;9.40;;;21.80;97.90;;;;;;5010322;28;20475;-63
2022/05/08 08:08:17;;;;;;;12.23;8.23;;;21.80;97.00;;;;;;5009664;28;20277;-62
2022/05/08 08:10:44;;;;;;;12.30;8.20;;;22.00;97.30;;;;;;5005743;28;20034;-62
2022/05/08 08:13:10;;;;;;;14.02;7.10;;;22.10;97.40;;;;;;5010445;28;20049;-63
2022/05/08 08:15:36;;;;;;;7.53;5.70;;;22.40;97.20;;;;;;5012218;28;20456;-63
2022/05/08 08:18:02;;;;;;;9.25;7.28;;;22.50;97.00;;;;;;5010709;28;20030;-63
2022/05/08 08:20:28;;;;;;;9.88;6.68;;;22.70;96.70;;;;;;5010858;28;20107;-64
2022/05/08 08:22:54;;;;;;;9.07;5.88;;;22.70;95.00;;;;;;5011466;28;20216;-61
2022/05/08 08:25:20;;;;;;;8.20;6.18;;;23.00;96.10;;;;;;5009501;28;20034;-63
2022/05/08 08:27:46;;;;;;;6.80;6.10;;;23.00;95.50;;;;;;5010086;28;20049;-63
2022/05/08 08:30:13;;;;;;;8.05;6.55;;;23.00;94.80;;;;;;5009918;28;20074;-64
2022/05/08 08:32:38;;;;;;;12.95;6.63;;;22.70;95.20;;;;;;5010523;28;20038;-63
2022/05/08 08:35:05;;;;;;;8.52;6.63;;;23.00;95.30;;;;;;5006177;28;20396;-65
2022/05/08 08:37:30;;;;;;;9.13;6.07;;;23.00;94.60;;;;;;5006782;28;20486;-66
2022/05/08 08:39:56;;;;;;;7.97;6.10;;;23.10;95.20;;;;;;5011264;28;20111;-62
2022/05/08 08:42:30;;;;;;;9.77;5.47;;;23.50;94.80;;;;;;5010267;28;20105;-63
2022/05/08 08:47:51;;;;;;;6.82;5.53;;;23.90;94.40;;;;;;5003867;28;20121;-61
2022/05/08 08:50:18;;;;;;;7.07;5.43;;;24.00;94.30;;;;;;5007495;28;20056;-62
2022/05/08 08:52:48;;;;;;;9.45;5.05;;;23.80;94.10;;;;;;5009518;28;20038;-61
2022/05/08 08:55:16;;;;;;;9.23;5.80;;;23.70;94.20;;;;;;5009335;28;20234;-61
2022/05/08 08:57:42;;;;;;;9.68;5.72;;;23.90;94.30;;;;;;5011729;28;20022;-62
2022/05/08 09:00:09;;;;;;;7.53;5.80;;;23.90;93.50;;;;;;5010741;28;20065;-62
2022/05/08 09:02:35;;;;;;;7.13;5.57;;;24.00;93.00;;;;;;5011493;28;20459;-63
2022/05/08 09:05:07;;;;;;;7.22;5.93;;;23.80;92.80;;;;;;5009394;28;20026;-63
2022/05/08 09:07:55;;;;;;;7.40;5.97;;;23.70;93.30;;;;;;5009581;28;20464;-62
2022/05/08 09:10:23;;;;;;;8.20;6.50;;;24.00;93.70;;;;;;5010192;28;20032;-63
2022/05/08 09:12:51;;;;;;;7.93;5.45;;;24.10;93.30;;;;;;5009931;28;20101;-62
2022/05/08 09:15:24;;;;;;;6.70;5.00;;;24.10;92.80;;;;;;5010597;28;20117;-61
2022/05/08 09:17:53;;;;;;;9.95;6.13;;;24.30;92.90;;;;;;5011013;28;20022;-62
2022/05/08 09:20:33;;;;;;;6.25;5.65;;;24.20;92.40;;;;;;5010307;28;20057;-66
2022/05/08 09:23:12;;;;;;;9.68;5.82;;;24.20;92.40;;;;;;5009600;28;20376;-68
2022/05/08 09:25:45;;;;;;;9.40;6.68;;;24.30;92.20;;;;;;5011263;28;20037;-66
2022/05/08 09:28:13;;;;;;;7.05;6.32;;;24.20;92.40;;;;;;5010663;28;20045;-66
2022/05/08 09:30:57;;;;;;;7.90;6.15;;;24.30;92.50;;;;;;5010632;28;20112;-66
2022/05/08 09:33:42;;;;;;;9.32;6.20;;;24.40;92.00;;;;;;5009377;28;20053;-66
2022/05/08 09:36:10;;;;;;;9.15;6.35;;;24.10;91.80;;;;;;5008697;28;20037;-66
2022/05/08 09:39:03;;;;;;;9.07;5.85;;;24.30;92.20;;;;;;5009565;28;20156;-67
2022/05/08 09:41:32;;;;;;;6.95;5.45;;;24.60;92.50;;;;;;5006841;28;20034;-65
2022/05/08 09:44:10;;;;;;;5.82;5.20;;;24.70;91.90;;;;;;5010069;28;20041;-69
2022/05/08 09:46:47;;;;;;;10.50;5.25;;;24.90;91.60;;;;;;5013407;28;20034;-65
2022/05/08 09:49:18;;;;;;;7.00;5.03;;;25.00;91.40;;;;;;5011432;28;20490;-66
2022/05/08 09:51:45;;;;;;;6.82;5.50;;;24.90;91.00;;;;;;5013626;28;20030;-69
2022/05/08 09:54:13;;;;;;;7.78;5.53;;;25.00;90.90;;;;;;5010439;28;20411;-65
2022/05/08 09:56:39;;;;;;;5.60;4.78;;;24.70;91.10;;;;;;5012855;28;20037;-65
2022/05/08 09:59:10;;;;;;;8.43;5.60;;;24.90;91.10;;;;;;5013222;28;20371;-66
2022/05/08 10:01:37;;;;;;;12.00;5.38;;;24.90;91.00;;;;;;5010928;28;20490;-66
2022/05/08 10:04:03;;;;;;;6.82;5.10;;;25.00;90.80;;;;;;5009886;28;20351;-68
2022/05/08 10:06:32;;;;;;;11.35;5.93;;;25.20;90.80;;;;;;5010509;28;20416;-66
2022/05/08 10:14:35;;;;;;;9.25;4.88;;;25.60;90.10;;;;;;5007344;28;20077;-67
2022/05/08 10:17:01;;;;;;;7.03;5.07;;;25.70;90.10;;;;;;5010286;28;20479;-67
2022/05/08 10:19:26;;;;;;;7.40;4.70;;;25.90;89.80;;;;;;5009090;28;21038;-72
2022/05/08 10:22:28;;;;;;;6.35;4.72;;;26.00;89.70;;;;;;5007832;28;20033;-67
2022/05/08 10:25:09;;;;;;;8.20;4.18;;;25.90;89.20;;;;;;5007920;28;20042;-66
2022/05/08 10:27:35;;;;;;;15.05;5.10;;;26.10;88.80;;;;;;5008123;28;20030;-65
2022/05/08 10:30:03;;;;;;;5.60;4.30;;;26.10;88.60;;;;;;5008965;28;20032;-67
2022/05/08 10:32:48;;;;;;;5.53;4.70;;;26.30;89.20;;;;;;5010844;28;20054;-69
2022/05/08 10:35:16;;;;;;;5.78;4.72;;;26.40;88.10;;;;;;5009771;28;20034;-66
2022/05/08 10:37:47;;;;;;;5.15;4.47;;;26.50;87.10;;;;;;5009573;28;20026;-66
2022/05/08 10:40:21;;;;;;;4.45;4.05;;;26.50;87.20;;;;;;5009880;28;20026;-66
2022/05/08 10:42:49;;;;;;;7.90;4.93;;;26.60;87.40;;;;;;5011254;28;20099;-66
2022/05/08 10:45:30;;;;;;;5.88;3.78;;;26.50;86.00;;;;;;5009721;28;20080;-67
2022/05/08 10:47:57;;;;;;;6.35;4.45;;;26.50;86.60;;;;;;5011602;28;20038;-67
2022/05/08 10:50:23;;;;;;;4.40;4.00;;;26.80;86.20;;;;;;5008323;28;20026;-59
2022/05/08 10:52:50;;;;;;;7.15;4.50;;;26.50;86.10;;;;;;5011005;28;20418;-58
2022/05/08 10:55:18;;;;;;;7.90;4.45;;;26.50;86.50;;;;;;5009046;28;20136;-59
2022/05/08 10:57:45;;;;;;;24.70;4.75;;;26.50;86.10;;;;;;5010174;28;20459;-59
2022/05/08 11:00:24;;;;;;;11.90;4.85;;;26.60;86.90;;;;;;5009271;28;20071;-65
2022/05/08 11:02:51;;;;;;;6.82;4.47;;;26.60;86.10;;;;;;5030768;28;20506;-61
2022/05/08 11:05:20;;;;;;;5.65;4.07;;;26.70;85.30;;;;;;5013848;28;20036;-61
2022/05/08 11:08:01;;;;;;;6.53;3.85;;;26.60;85.40;;;;;;5013030;28;20037;-60
2022/05/08 11:10:42;;;;;;;5.25;4.28;;;26.70;85.90;;;;;;5030701;28;20029;-60
2022/05/08 11:13:11;;;;;;;;;;;26.80;85.30;;;;;;5013189;28;20119;-62
2022/05/08 11:15:38;;;;;;;11.55;4.90;;;26.90;90.50;;;;;;5013882;28;19909;-61
2022/05/08 11:18:07;;;;;;;9.95;3.85;;;27.00;89.40;;;;;;5030305;28;20037;-61
2022/05/08 11:20:36;;;;;;;7.90;4.78;;;27.10;86.40;;;;;;5013859;28;20045;-61
2022/05/08 11:23:04;;;;;;;4.07;3.67;;;26.80;85.70;;;;;;5012946;28;20041;-62
2022/05/08 11:25:31;;;;;;;5.55;3.95;;;26.90;85.30;;;;;;5030065;28;20124;-61
2022/05/08 11:27:58;;;;;;;7.00;4.25;;;27.00;85.20;;;;;;5013408;28;20115;-61
2022/05/08 11:30:35;;;;;;;8.13;5.13;;;27.10;85.20;;;;;;5009402;28;20329;-61
2022/05/08 11:36:11;;;;;;;11.10;6.28;;;27.30;84.40;;;;;;5007061;28;20104;-61
2022/05/08 11:38:50;;;;;;;8.57;4.72;;;27.40;84.30;;;;;;5007858;28;20042;-60
2022/05/08 11:41:21;;;;;;;10.00;4.68;;;27.40;83.30;;;;;;5005427;28;20111;-62
2022/05/08 11:43:47;;;;;;;;;;;27.20;83.90;;;;;;5005864;28;20215;-61
2022/05/08 11:46:18;;;;;;;6.32;4.28;;;27.00;84.00;;;;;;5006999;28;19906;-61
2022/05/08 11:48:47;;;;;;;8.48;5.03;;;27.10;84.20;;;;;;5006279;28;20470;-61
2022/05/08 11:51:20;;;;;;;5.75;3.92;;;27.40;84.80;;;;;;5008507;28;20116;-63
2022/05/08 11:53:52;;;;;;;5.20;3.63;;;27.50;84.00;;;;;;5008027;28;20034;-62
2022/05/08 11:56:26;;;;;;;6.00;4.20;;;27.50;83.90;;;;;;5002412;28;20564;-61
2022/05/08 11:58:53;;;;;;;8.80;3.55;;;27.50;83.20;;;;;;5007331;28;20057;-67
2022/05/08 12:01:25;;;;;;;6.47;3.72;;;27.40;82.90;;;;;;5004363;28;20034;-61
2022/05/08 12:03:52;;;;;;;6.35;3.65;;;27.70;81.80;;;;;;5011144;28;20034;-60
2022/05/08 12:06:18;;;;;;;6.68;3.20;;;27.60;81.10;;;;;;5011544;28;20040;-61
2022/05/08 12:08:44;;;;;;;6.53;3.05;;;27.50;81.80;;;;;;5002996;28;20112;-61
2022/05/08 12:11:33;;;;;;;8.48;3.00;;;27.50;80.90;;;;;;5006976;28;20022;-61
2022/05/08 12:14:08;;;;;;;5.40;2.63;;;27.40;80.00;;;;;;5008836;28;20038;-60
2022/05/08 12:16:35;;;;;;;3.28;2.83;;;27.60;80.80;;;;;;5009784;28;20030;-61
2022/05/08 12:19:18;;;;;;;4.00;2.63;;;27.70;79.90;;;;;;5011863;28;20096;-60
2022/05/08 12:21:46;;;;;;;5.40;2.92;;;27.90;79.40;;;;;;5010531;28;20388;-61
2022/05/08 12:24:14;;;;;;;3.03;2.67;;;28.00;78.20;;;;;;5008095;28;20032;-60
2022/05/08 12:26:40;;;;;;;2.97;2.67;;;28.00;77.60;;;;;;5010140;28;20100;-68
2022/05/08 12:29:07;;;;;;;2.88;2.58;;;27.90;77.50;;;;;;5008470;28;20049;-68
2022/05/08 12:31:34;;;;;;;6.97;2.67;;;28.00;78.00;;;;;;5011102;28;20033;-65
2022/05/08 12:34:00;;;;;;;5.47;2.45;;;28.00;76.70;;;;;;5010915;28;20125;-68
2022/05/08 12:36:26;;;;;;;4.68;2.10;;;28.10;77.10;;;;;;5009936;28;20140;-66
2022/05/08 12:38:52;;;;;;;4.00;2.25;;;28.30;76.30;;;;;;5011034;28;20051;-67
2022/05/08 12:41:18;;;;;;;4.22;2.97;;;28.30;75.20;;;;;;5008530;28;20136;-65
2022/05/08 12:43:43;;;;;;;4.97;2.13;;;28.20;75.10;;;;;;5010504;28;20356;-67
2022/05/08 12:46:09;;;;;;;6.18;1.80;;;28.50;74.90;;;;;;5008404;28;20108;-70
2022/05/08 12:48:35;;;;;;;5.43;2.50;;;28.70;73.60;;;;;;5008215;28;20021;-67
2022/05/08 12:51:00;;;;;;;11.30;2.58;;;28.40;73.10;;;;;;5007118;28;20128;-67
2022/05/08 12:53:26;;;;;;;2.50;2.30;;;28.20;73.50;;;;;;5005493;28;20034;-66
2022/05/08 12:55:52;;;;;;;4.22;2.30;;;28.10;73.10;;;;;;5002047;28;20113;-66
2022/05/08 13:01:04;;;;;;;4.60;2.75;;;28.20;74.70;;;;;;5008384;28;20068;-66
2022/05/08 13:03:29;;;;;;;5.80;2.35;;;28.40;75.10;;;;;;5009280;28;20042;-68
2022/05/08 13:05:55;;;;;;;4.63;2.70;;;28.50;74.70;;;;;;4997147;28;20045;-68
2022/05/08 13:08:21;;;;;;;7.03;2.50;;;28.90;74.70;;;;;;5003812;28;20026;-66
2022/05/08 13:10:47;;;;;;;6.05;2.60;;;28.90;73.30;;;;;;5005847;28;20042;-69
2022/05/08 13:13:13;;;;;;;2.70;2.42;;;28.60;73.90;;;;;;5001671;28;20117;-66